createdAt,value
2022-10-22T00:00:00.570Z,99296
2022-10-22T00:01:00.314Z,99296
2022-10-22T00:02:00.468Z,99296
2022-10-22T00:03:00.513Z,99318
2022-10-22T00:04:00.330Z,99318
2022-10-22T00:05:00.330Z,99318
2022-10-22T00:06:00.350Z,99318
2022-10-22T00:07:00.299Z,99318
2022-10-22T00:08:00.326Z,99324
2022-10-22T00:09:00.419Z,99324
2022-10-22T00:10:00.679Z,99324
2022-10-22T00:11:06.807Z,99324
2022-10-22T00:12:00.310Z,99324
2022-10-22T00:13:00.309Z,99324
2022-10-22T00:14:00.425Z,99324
2022-10-22T00:15:00.365Z,99324
2022-10-22T00:16:00.312Z,99324
2022-10-22T00:17:00.477Z,99324
2022-10-22T00:18:00.360Z,99325
2022-10-22T00:19:00.301Z,99325
2022-10-22T00:20:00.477Z,99325
2022-10-22T00:21:00.446Z,99325
2022-10-22T00:22:00.306Z,99325
2022-10-22T00:23:00.315Z,99333
2022-10-22T00:24:00.416Z,99333
2022-10-22T00:25:00.344Z,99333
2022-10-22T00:26:00.384Z,99333
2022-10-22T00:27:00.460Z,99333
2022-10-22T00:28:00.854Z,99345
2022-10-22T00:29:00.308Z,99345
2022-10-22T00:30:00.440Z,99345
2022-10-22T00:31:00.629Z,99345
2022-10-22T00:32:00.587Z,99345
2022-10-22T00:33:00.407Z,99359
2022-10-22T00:34:00.646Z,99359
2022-10-22T00:35:00.463Z,99359
2022-10-22T00:36:00.306Z,99359
2022-10-22T00:37:00.362Z,99359
2022-10-22T00:38:01.500Z,99362
2022-10-22T00:39:00.298Z,99362
2022-10-22T00:40:00.361Z,99362
2022-10-22T00:42:00.347Z,99362
2022-10-22T00:43:00.382Z,99364
2022-10-22T00:44:01.710Z,99364
2022-10-22T00:45:03.610Z,99364
2022-10-22T00:46:00.298Z,99364
2022-10-22T00:47:00.398Z,99364
2022-10-22T00:48:00.293Z,99375
2022-10-22T00:49:01.804Z,99375
2022-10-22T00:50:01.119Z,99375
2022-10-22T00:51:02.683Z,99375
2022-10-22T00:52:00.311Z,99375
2022-10-22T00:53:01.669Z,99382
2022-10-22T00:54:02.373Z,99382
2022-10-22T00:55:00.542Z,99382
2022-10-22T00:56:00.673Z,99382
2022-10-22T00:57:00.494Z,99382
2022-10-22T00:58:00.472Z,99396
2022-10-22T00:59:01.245Z,99396
2022-10-22T01:00:00.497Z,99396
2022-10-22T01:01:01.295Z,99396
2022-10-22T01:02:00.300Z,99396
2022-10-22T01:03:00.696Z,99404
2022-10-22T01:04:00.307Z,99404
2022-10-22T01:05:00.569Z,99404
2022-10-22T01:06:02.787Z,99404
2022-10-22T01:07:00.564Z,99404
2022-10-22T01:08:00.413Z,99414
2022-10-22T01:09:00.358Z,99414
2022-10-22T01:10:07.451Z,99414
2022-10-22T01:11:09.261Z,99414
2022-10-22T01:12:03.919Z,99414
2022-10-22T01:13:04.965Z,99412
2022-10-22T01:14:10.030Z,99412
2022-10-22T01:15:00.290Z,99412
2022-10-22T01:16:07.860Z,99412
2022-10-22T01:17:01.311Z,99412
2022-10-22T01:18:00.292Z,99410
2022-10-22T01:19:00.316Z,99410
2022-10-22T01:20:10.234Z,99410
2022-10-22T01:21:10.227Z,99410
2022-10-22T01:22:10.210Z,99410
2022-10-22T01:23:10.219Z,99415
2022-10-22T01:24:03.609Z,99415
2022-10-22T01:25:07.177Z,99415
2022-10-22T01:26:08.717Z,99415
2022-10-22T01:27:10.188Z,99415
2022-10-22T01:28:10.211Z,99420
2022-10-22T01:29:03.637Z,99420
2022-10-22T01:30:02.288Z,99420
2022-10-22T01:31:02.472Z,99420
2022-10-22T01:32:02.972Z,99420
2022-10-22T01:33:02.543Z,99425
2022-10-22T01:34:01.869Z,99425
2022-10-22T01:35:02.289Z,99425
2022-10-22T01:36:01.068Z,99425
2022-10-22T01:37:01.746Z,99425
2022-10-22T01:38:02.800Z,99431
2022-10-22T01:39:00.965Z,99431
2022-10-22T01:40:01.295Z,99431
2022-10-22T01:41:00.336Z,99431
2022-10-22T01:42:00.355Z,99431
2022-10-22T01:43:03.066Z,99437
2022-10-22T01:44:00.348Z,99437
2022-10-22T01:45:00.296Z,99437
2022-10-22T01:46:02.611Z,99437
2022-10-22T01:47:10.271Z,99437
2022-10-22T01:48:10.197Z,99444
2022-10-22T01:49:10.200Z,99444
2022-10-22T01:50:00.287Z,99444
2022-10-22T01:51:03.668Z,99444
2022-10-22T01:52:10.219Z,99444
2022-10-22T01:53:01.308Z,99454
2022-10-22T01:54:10.237Z,99454
2022-10-22T01:55:10.221Z,99454
2022-10-22T01:56:00.281Z,99454
2022-10-22T01:57:07.813Z,99454
2022-10-22T01:58:07.742Z,99458
2022-10-22T01:59:05.697Z,99458
2022-10-22T02:00:09.682Z,99458
2022-10-22T02:01:10.223Z,99458
2022-10-22T02:02:09.631Z,99458
2022-10-22T02:03:04.327Z,99459
2022-10-22T02:04:00.292Z,99459
2022-10-22T02:05:06.253Z,99459
2022-10-22T02:06:03.412Z,99459
2022-10-22T02:07:03.712Z,99459
2022-10-22T02:08:01.858Z,99457
2022-10-22T02:09:01.521Z,99457
2022-10-22T02:10:01.213Z,99457
2022-10-22T02:11:00.440Z,99457
2022-10-22T02:13:01.199Z,99467
2022-10-22T02:14:02.604Z,99467
2022-10-22T02:15:01.698Z,99467
2022-10-22T02:16:01.916Z,99467
2022-10-22T02:17:00.383Z,99467
2022-10-22T02:18:00.561Z,99469
2022-10-22T02:19:02.909Z,99469
2022-10-22T02:20:02.604Z,99469
2022-10-22T02:21:00.440Z,99469
2022-10-22T02:22:00.466Z,99469
2022-10-22T02:23:01.120Z,99483
2022-10-22T02:24:00.386Z,99483
2022-10-22T02:25:00.408Z,99483
2022-10-22T02:26:05.151Z,99483
2022-10-22T02:27:03.741Z,99483
2022-10-22T02:28:11.229Z,99484
2022-10-22T02:29:05.390Z,99484
2022-10-22T02:30:03.826Z,99484
2022-10-22T02:31:06.473Z,99484
2022-10-22T02:32:02.115Z,99484
2022-10-22T02:33:07.668Z,99494
2022-10-22T02:34:04.112Z,99494
2022-10-22T02:35:00.925Z,99494
2022-10-22T02:36:01.533Z,99494
2022-10-22T02:37:01.472Z,99494
2022-10-22T02:38:00.489Z,99494
2022-10-22T02:39:00.539Z,99494
2022-10-22T02:40:00.453Z,99494
2022-10-22T02:41:00.475Z,99494
2022-10-22T02:42:01.688Z,99494
2022-10-22T02:43:02.751Z,99495
2022-10-22T02:44:00.307Z,99495
2022-10-22T02:45:00.331Z,99495
2022-10-22T02:46:00.301Z,99495
2022-10-22T02:47:00.311Z,99495
2022-10-22T02:48:00.395Z,99498
2022-10-22T02:49:00.323Z,99498
2022-10-22T02:50:00.418Z,99498
2022-10-22T02:51:00.384Z,99498
2022-10-22T02:52:00.386Z,99498
2022-10-22T02:53:00.329Z,99503
2022-10-22T02:54:00.390Z,99503
2022-10-22T02:55:00.460Z,99503
2022-10-22T02:56:00.315Z,99503
2022-10-22T02:57:00.387Z,99503
2022-10-22T02:58:00.359Z,99514
2022-10-22T02:59:00.300Z,99514
2022-10-22T03:00:00.478Z,99514
2022-10-22T03:01:00.602Z,99514
2022-10-22T03:02:00.357Z,99514
2022-10-22T03:03:00.330Z,99520
2022-10-22T03:04:00.321Z,99520
2022-10-22T03:05:00.417Z,99520
2022-10-22T03:06:00.405Z,99520
2022-10-22T03:07:00.317Z,99520
2022-10-22T03:08:00.297Z,99529
2022-10-22T03:09:00.439Z,99529
2022-10-22T03:10:00.339Z,99529
2022-10-22T03:11:00.301Z,99529
2022-10-22T03:12:00.417Z,99529
2022-10-22T03:13:00.364Z,99531
2022-10-22T03:14:00.314Z,99531
2022-10-22T03:15:00.337Z,99531
2022-10-22T03:16:01.560Z,99531
2022-10-22T03:17:00.628Z,99531
2022-10-22T03:18:00.412Z,99538
2022-10-22T03:19:00.440Z,99538
2022-10-22T03:20:00.303Z,99538
2022-10-22T03:21:06.858Z,99538
2022-10-22T03:22:02.026Z,99538
2022-10-22T03:23:01.210Z,99545
2022-10-22T03:24:03.851Z,99545
2022-10-22T03:25:04.465Z,99545
2022-10-22T03:26:00.439Z,99545
2022-10-22T03:27:00.543Z,99545
2022-10-22T03:28:02.109Z,99556
2022-10-22T03:29:00.729Z,99556
2022-10-22T03:30:00.845Z,99556
2022-10-22T03:31:00.302Z,99556
2022-10-22T03:32:00.349Z,99556
2022-10-22T03:33:00.379Z,99568
2022-10-22T03:34:00.309Z,99568
2022-10-22T03:36:00.591Z,99568
2022-10-22T03:37:01.161Z,99568
2022-10-22T03:38:00.423Z,99572
2022-10-22T03:39:00.572Z,99572
2022-10-22T03:40:00.867Z,99572
2022-10-22T03:41:00.325Z,99572
2022-10-22T03:42:00.553Z,99572
2022-10-22T03:43:00.452Z,99582
2022-10-22T03:44:01.858Z,99582
2022-10-22T03:45:00.321Z,99582
2022-10-22T03:46:00.323Z,99582
2022-10-22T03:47:02.610Z,99582
2022-10-22T03:48:00.317Z,99599
2022-10-22T03:49:00.310Z,99599
2022-10-22T03:50:00.304Z,99599
2022-10-22T03:51:00.344Z,99599
2022-10-22T03:52:08.925Z,99599
2022-10-22T03:53:00.309Z,99614
2022-10-22T03:54:00.612Z,99614
2022-10-22T03:55:00.322Z,99614
2022-10-22T03:56:00.487Z,99614
2022-10-22T03:57:00.329Z,99614
2022-10-22T03:58:00.416Z,99625
2022-10-22T03:59:00.638Z,99625
2022-10-22T04:00:00.407Z,99625
2022-10-22T04:01:04.294Z,99625
2022-10-22T04:02:00.337Z,99625
2022-10-22T04:03:00.329Z,99630
2022-10-22T04:04:00.414Z,99630
2022-10-22T04:05:00.496Z,99630
2022-10-22T04:06:01.287Z,99630
2022-10-22T04:07:00.429Z,99630
2022-10-22T04:08:00.294Z,99640
2022-10-22T04:09:00.338Z,99640
2022-10-22T04:10:00.336Z,99640
2022-10-22T04:11:00.466Z,99640
2022-10-22T04:12:00.685Z,99640
2022-10-22T04:13:00.294Z,99646
2022-10-22T04:14:00.392Z,99646
2022-10-22T04:15:00.309Z,99646
2022-10-22T04:16:08.340Z,99646
2022-10-22T04:17:00.562Z,99646
2022-10-22T04:18:00.333Z,99652
2022-10-22T04:19:00.310Z,99652
2022-10-22T04:20:00.651Z,99652
2022-10-22T04:21:00.327Z,99652
2022-10-22T04:22:00.675Z,99652
2022-10-22T04:23:00.307Z,99666
2022-10-22T04:24:00.443Z,99666
2022-10-22T04:25:00.600Z,99666
2022-10-22T04:26:01.668Z,99666
2022-10-22T04:27:00.311Z,99666
2022-10-22T04:28:00.310Z,99672
2022-10-22T04:29:00.410Z,99672
2022-10-22T04:30:00.456Z,99672
2022-10-22T04:31:00.314Z,99672
2022-10-22T04:32:00.333Z,99672
2022-10-22T04:33:00.487Z,99673
2022-10-22T04:34:00.339Z,99673
2022-10-22T04:35:00.311Z,99673
2022-10-22T04:36:04.775Z,99673
2022-10-22T04:37:00.385Z,99673
2022-10-22T04:38:00.317Z,99676
2022-10-22T04:39:00.822Z,99676
2022-10-22T04:40:00.527Z,99676
2022-10-22T04:41:10.197Z,99676
2022-10-22T04:42:00.296Z,99676
2022-10-22T04:43:00.312Z,99684
2022-10-22T04:44:00.732Z,99684
2022-10-22T04:45:00.316Z,99684
2022-10-22T04:46:00.323Z,99684
2022-10-22T04:47:00.420Z,99684
2022-10-22T04:48:00.399Z,99693
2022-10-22T04:49:00.359Z,99693
2022-10-22T04:50:00.371Z,99693
2022-10-22T04:51:00.394Z,99693
2022-10-22T04:52:00.380Z,99693
2022-10-22T04:53:00.346Z,99708
2022-10-22T04:54:00.302Z,99708
2022-10-22T04:55:00.476Z,99708
2022-10-22T04:56:08.154Z,99708
2022-10-22T04:57:00.292Z,99708
2022-10-22T04:58:00.354Z,99712
2022-10-22T04:59:01.828Z,99712
2022-10-22T05:00:00.452Z,99712
2022-10-22T05:01:00.414Z,99712
2022-10-22T05:02:00.313Z,99712
2022-10-22T05:03:00.290Z,99717
2022-10-22T05:04:01.084Z,99717
2022-10-22T05:05:00.729Z,99717
2022-10-22T05:06:00.730Z,99717
2022-10-22T05:07:00.314Z,99717
2022-10-22T05:08:00.328Z,99719
2022-10-22T05:09:02.254Z,99719
2022-10-22T05:10:00.305Z,99719
2022-10-22T05:11:00.439Z,99719
2022-10-22T05:12:00.443Z,99719
2022-10-22T05:13:00.304Z,99725
2022-10-22T05:14:01.627Z,99725
2022-10-22T05:15:00.360Z,99725
2022-10-22T05:16:00.906Z,99725
2022-10-22T05:17:00.472Z,99725
2022-10-22T05:18:00.777Z,99730
2022-10-22T05:19:00.867Z,99730
2022-10-22T05:20:00.409Z,99730
2022-10-22T05:21:00.315Z,99730
2022-10-22T05:22:01.035Z,99730
2022-10-22T05:23:00.293Z,99737
2022-10-22T05:24:00.317Z,99737
2022-10-22T05:25:00.455Z,99737
2022-10-22T05:26:01.047Z,99737
2022-10-22T05:27:00.418Z,99737
2022-10-22T05:28:00.469Z,99740
2022-10-22T05:29:00.371Z,99740
2022-10-22T05:30:00.314Z,99740
2022-10-22T05:31:00.700Z,99740
2022-10-22T05:32:01.335Z,99740
2022-10-22T05:33:00.303Z,99751
2022-10-22T05:34:00.436Z,99751
2022-10-22T05:35:00.435Z,99751
2022-10-22T05:36:01.431Z,99751
2022-10-22T05:37:00.689Z,99751
2022-10-22T05:38:00.333Z,99769
2022-10-22T05:39:00.383Z,99769
2022-10-22T05:40:12.499Z,99769
2022-10-22T05:41:00.350Z,99769
2022-10-22T05:42:00.400Z,99769
2022-10-22T05:43:00.398Z,99761
2022-10-22T05:44:00.656Z,99761
2022-10-22T05:45:00.436Z,99761
2022-10-22T05:46:01.425Z,99761
2022-10-22T05:47:00.309Z,99761
2022-10-22T05:48:00.311Z,99769
2022-10-22T05:49:02.410Z,99769
2022-10-22T05:50:00.326Z,99769
2022-10-22T05:51:01.901Z,99769
2022-10-22T05:52:00.305Z,99769
2022-10-22T05:53:00.493Z,99771
2022-10-22T05:54:02.144Z,99771
2022-10-22T05:55:00.418Z,99771
2022-10-22T05:56:02.085Z,99771
2022-10-22T05:57:00.338Z,99771
2022-10-22T05:58:00.335Z,99779
2022-10-22T05:59:00.446Z,99779
2022-10-22T06:00:00.357Z,99779
2022-10-22T06:01:01.501Z,99779
2022-10-22T06:02:00.462Z,99779
2022-10-22T06:03:00.371Z,99785
2022-10-22T06:04:01.819Z,99785
2022-10-22T06:05:00.415Z,99785
2022-10-22T06:06:04.941Z,99785
2022-10-22T06:07:01.237Z,99785
2022-10-22T06:08:00.533Z,99795
2022-10-22T06:09:01.954Z,99795
2022-10-22T06:10:00.845Z,99795
2022-10-22T06:11:00.340Z,99795
2022-10-22T06:12:00.361Z,99795
2022-10-22T06:13:00.338Z,99805
2022-10-22T06:14:00.329Z,99805
2022-10-22T06:15:00.323Z,99805
2022-10-22T06:16:00.363Z,99805
2022-10-22T06:17:00.316Z,99805
2022-10-22T06:18:00.365Z,99811
2022-10-22T06:19:00.857Z,99811
2022-10-22T06:20:00.449Z,99811
2022-10-22T06:21:04.581Z,99811
2022-10-22T06:22:00.329Z,99811
2022-10-22T06:23:00.298Z,99815
2022-10-22T06:24:00.303Z,99815
2022-10-22T06:25:00.342Z,99815
2022-10-22T06:26:00.341Z,99815
2022-10-22T06:27:00.333Z,99815
2022-10-22T06:28:00.295Z,99823
2022-10-22T06:29:00.407Z,99823
2022-10-22T06:30:00.362Z,99823
2022-10-22T06:31:01.136Z,99823
2022-10-22T06:32:00.336Z,99823
2022-10-22T06:33:00.310Z,99830
2022-10-22T06:34:00.386Z,99830
2022-10-22T06:35:00.341Z,99830
2022-10-22T06:36:08.245Z,99830
2022-10-22T06:37:00.315Z,99830
2022-10-22T06:38:00.352Z,99838
2022-10-22T06:39:00.324Z,99838
2022-10-22T06:40:00.356Z,99838
2022-10-22T06:41:02.640Z,99838
2022-10-22T06:42:00.333Z,99838
2022-10-22T06:43:00.318Z,99846
2022-10-22T06:44:00.333Z,99846
2022-10-22T06:46:01.557Z,99846
2022-10-22T06:47:00.315Z,99846
2022-10-22T06:48:00.501Z,99857
2022-10-22T06:49:02.220Z,99857
2022-10-22T06:50:00.403Z,99857
2022-10-22T06:51:01.951Z,99857
2022-10-22T06:52:00.303Z,99857
2022-10-22T06:53:00.571Z,99867
2022-10-22T06:54:00.301Z,99867
2022-10-22T06:55:00.354Z,99867
2022-10-22T06:56:04.340Z,99867
2022-10-22T06:57:00.338Z,99867
2022-10-22T06:58:00.344Z,99867
2022-10-22T06:59:00.373Z,99867
2022-10-22T07:00:00.410Z,99867
2022-10-22T07:01:01.250Z,99867
2022-10-22T07:02:00.338Z,99867
2022-10-22T07:03:00.315Z,99874
2022-10-22T07:04:00.654Z,99874
2022-10-22T07:05:00.363Z,99874
2022-10-22T07:06:01.290Z,99874
2022-10-22T07:07:00.345Z,99874
2022-10-22T07:08:00.392Z,99878
2022-10-22T07:09:00.614Z,99878
2022-10-22T07:10:00.498Z,99878
2022-10-22T07:11:10.218Z,99878
2022-10-22T07:12:00.392Z,99878
2022-10-22T07:13:00.358Z,99893
2022-10-22T07:14:00.316Z,99893
2022-10-22T07:15:00.367Z,99893
2022-10-22T07:16:00.403Z,99893
2022-10-22T07:17:00.330Z,99893
2022-10-22T07:18:00.319Z,99904
2022-10-22T07:19:01.295Z,99904
2022-10-22T07:20:00.310Z,99904
2022-10-22T07:21:00.800Z,99904
2022-10-22T07:22:00.447Z,99904
2022-10-22T07:23:00.352Z,99915
2022-10-22T07:24:00.317Z,99915
2022-10-22T07:25:05.134Z,99915
2022-10-22T07:26:00.427Z,99915
2022-10-22T07:27:00.375Z,99915
2022-10-22T07:28:00.320Z,99926
2022-10-22T07:29:00.324Z,99926
2022-10-22T07:30:00.343Z,99926
2022-10-22T07:31:00.327Z,99926
2022-10-22T07:32:00.341Z,99926
2022-10-22T07:33:00.334Z,99934
2022-10-22T07:34:00.334Z,99934
2022-10-22T07:35:00.312Z,99934
2022-10-22T07:36:02.080Z,99934
2022-10-22T07:37:00.329Z,99934
2022-10-22T07:38:00.318Z,99938
2022-10-22T07:39:00.403Z,99938
2022-10-22T07:40:03.693Z,99938
2022-10-22T07:41:00.710Z,99938
2022-10-22T07:42:00.386Z,99938
2022-10-22T07:43:00.653Z,99945
2022-10-22T07:44:00.312Z,99945
2022-10-22T07:45:00.328Z,99945
2022-10-22T07:46:00.337Z,99945
2022-10-22T07:47:00.337Z,99945
2022-10-22T07:48:00.351Z,99952
2022-10-22T07:49:00.339Z,99952
2022-10-22T07:50:00.468Z,99952
2022-10-22T07:51:00.356Z,99952
2022-10-22T07:52:00.329Z,99952
2022-10-22T07:53:00.337Z,99962
2022-10-22T07:54:00.306Z,99962
2022-10-22T07:55:00.320Z,99962
2022-10-22T07:56:00.432Z,99962
2022-10-22T07:57:00.344Z,99962
2022-10-22T07:58:00.408Z,99975
2022-10-22T07:59:03.096Z,99975
2022-10-22T08:00:00.387Z,99975
2022-10-22T08:01:01.000Z,99975
2022-10-22T08:02:00.388Z,99975
2022-10-22T08:03:00.325Z,99980
2022-10-22T08:04:00.342Z,99980
2022-10-22T08:05:00.417Z,99980
2022-10-22T08:06:00.703Z,99980
2022-10-22T08:07:00.435Z,99980
2022-10-22T08:08:00.331Z,99985
2022-10-22T08:09:00.344Z,99985
2022-10-22T08:10:00.365Z,99985
2022-10-22T08:11:00.884Z,99985
2022-10-22T08:12:00.622Z,99985
2022-10-22T08:13:00.339Z,100002
2022-10-22T08:14:00.344Z,100002
2022-10-22T08:15:00.384Z,100002
2022-10-22T08:16:00.494Z,100002
2022-10-22T08:17:00.459Z,100002
2022-10-22T08:18:00.357Z,100005
2022-10-22T08:19:00.328Z,100005
2022-10-22T08:20:00.330Z,100005
2022-10-22T08:21:00.363Z,100005
2022-10-22T08:22:00.999Z,100005
2022-10-22T08:23:00.351Z,100020
2022-10-22T08:24:00.369Z,100020
2022-10-22T08:25:00.319Z,100020
2022-10-22T08:26:00.322Z,100020
2022-10-22T08:27:00.330Z,100020
2022-10-22T08:28:00.321Z,100027
2022-10-22T08:29:00.344Z,100027
2022-10-22T08:30:00.364Z,100027
2022-10-22T08:31:00.318Z,100027
2022-10-22T08:32:00.501Z,100027
2022-10-22T08:33:00.327Z,100041
2022-10-22T08:34:00.341Z,100041
2022-10-22T08:35:00.397Z,100041
2022-10-22T08:36:00.316Z,100041
2022-10-22T08:37:00.320Z,100041
2022-10-22T08:38:00.313Z,100037
2022-10-22T08:39:00.294Z,100037
2022-10-22T08:40:00.366Z,100037
2022-10-22T08:41:10.209Z,100037
2022-10-22T08:42:10.200Z,100037
2022-10-22T08:43:03.602Z,100041
2022-10-22T08:44:07.700Z,100041
2022-10-22T08:45:01.321Z,100041
2022-10-22T08:46:01.330Z,100041
2022-10-22T08:47:10.205Z,100041
2022-10-22T08:48:10.196Z,100040
2022-10-22T08:49:02.123Z,100040
2022-10-22T08:50:00.686Z,100040
2022-10-22T08:51:00.431Z,100040
2022-10-22T08:52:00.338Z,100040
2022-10-22T08:53:02.724Z,100042
2022-10-22T08:54:00.304Z,100042
2022-10-22T08:55:01.422Z,100042
2022-10-22T08:56:00.301Z,100042
2022-10-22T08:57:07.730Z,100042
2022-10-22T08:58:05.217Z,100043
2022-10-22T08:59:04.895Z,100043
2022-10-22T09:00:10.246Z,100043
2022-10-22T09:01:10.200Z,100043
2022-10-22T09:02:01.845Z,100043
2022-10-22T09:03:10.195Z,100048
2022-10-22T09:04:10.196Z,100048
2022-10-22T09:05:11.500Z,100048
2022-10-22T09:06:03.590Z,100048
2022-10-22T09:07:00.366Z,100048
2022-10-22T09:08:00.830Z,100042
2022-10-22T09:09:01.460Z,100042
2022-10-22T09:10:00.998Z,100042
2022-10-22T09:11:05.527Z,100042
2022-10-22T09:12:01.413Z,100042
2022-10-22T09:13:00.368Z,100049
2022-10-22T09:14:01.363Z,100049
2022-10-22T09:15:00.432Z,100049
2022-10-22T09:16:10.219Z,100049
2022-10-22T09:17:10.205Z,100049
2022-10-22T09:18:00.345Z,100054
2022-10-22T09:19:03.574Z,100054
2022-10-22T09:20:03.588Z,100054
2022-10-22T09:21:05.975Z,100054
2022-10-22T09:22:01.358Z,100054
2022-10-22T09:23:03.585Z,100061
2022-10-22T09:24:10.227Z,100061
2022-10-22T09:25:10.237Z,100061
2022-10-22T09:26:00.308Z,100061
2022-10-22T09:27:01.117Z,100061
2022-10-22T09:28:00.340Z,100063
2022-10-22T09:29:00.650Z,100063
2022-10-22T09:30:00.426Z,100063
2022-10-22T09:31:00.305Z,100063
2022-10-22T09:32:00.312Z,100063
2022-10-22T09:33:10.198Z,100074
2022-10-22T09:34:00.358Z,100074
2022-10-22T09:35:00.326Z,100074
2022-10-22T09:36:00.850Z,100074
2022-10-22T09:37:02.944Z,100074
2022-10-22T09:38:07.420Z,100078
2022-10-22T09:39:00.485Z,100078
2022-10-22T09:40:03.514Z,100078
2022-10-22T09:41:00.933Z,100078
2022-10-22T09:42:00.296Z,100078
2022-10-22T09:43:00.297Z,100080
2022-10-22T09:44:00.332Z,100080
2022-10-22T09:45:00.306Z,100080
2022-10-22T09:46:01.703Z,100080
2022-10-22T09:47:05.408Z,100080
2022-10-22T09:48:10.204Z,100086
2022-10-22T09:49:04.882Z,100086
2022-10-22T09:50:10.228Z,100086
2022-10-22T09:51:10.227Z,100086
2022-10-22T09:52:00.620Z,100086
2022-10-22T09:53:09.587Z,100097
2022-10-22T09:54:01.824Z,100097
2022-10-22T09:55:02.246Z,100097
2022-10-22T09:56:05.074Z,100097
2022-10-22T09:57:05.798Z,100097
2022-10-22T09:58:00.327Z,100101
2022-10-22T09:59:00.346Z,100101
2022-10-22T10:00:00.362Z,100101
2022-10-22T10:01:00.385Z,100101
2022-10-22T10:02:13.609Z,100101
2022-10-22T10:03:00.390Z,100104
2022-10-22T10:04:06.916Z,100104
2022-10-22T10:05:01.529Z,100104
2022-10-22T10:06:04.767Z,100104
2022-10-22T10:07:00.314Z,100104
2022-10-22T10:08:07.210Z,100100
2022-10-22T10:09:00.586Z,100100
2022-10-22T10:10:00.958Z,100100
2022-10-22T10:11:10.200Z,100100
2022-10-22T10:12:03.613Z,100100
2022-10-22T10:13:07.892Z,100104
2022-10-22T10:14:07.107Z,100104
2022-10-22T10:15:10.237Z,100104
2022-10-22T10:16:00.290Z,100104
2022-10-22T10:17:10.198Z,100104
2022-10-22T10:18:10.196Z,100106
2022-10-22T10:19:10.228Z,100106
2022-10-22T10:20:03.720Z,100106
2022-10-22T10:21:00.392Z,100106
2022-10-22T10:22:04.405Z,100106
2022-10-22T10:23:06.644Z,100110
2022-10-22T10:24:10.193Z,100110
2022-10-22T10:25:01.321Z,100110
2022-10-22T10:26:04.158Z,100110
2022-10-22T10:27:10.203Z,100110
2022-10-22T10:28:06.687Z,100124
2022-10-22T10:29:09.859Z,100124
2022-10-22T10:30:02.285Z,100124
2022-10-22T10:31:10.219Z,100124
2022-10-22T10:32:10.195Z,100124
2022-10-22T10:33:00.282Z,100130
2022-10-22T10:34:10.217Z,100130
2022-10-22T10:35:03.611Z,100130
2022-10-22T10:36:07.703Z,100130
2022-10-22T10:37:10.208Z,100130
2022-10-22T10:38:01.322Z,100141
2022-10-22T10:39:07.801Z,100141
2022-10-22T10:40:10.224Z,100141
2022-10-22T10:41:00.317Z,100141
2022-10-22T10:42:01.307Z,100141
2022-10-22T10:43:03.615Z,100137
2022-10-22T10:44:10.204Z,100137
2022-10-22T10:45:00.286Z,100137
2022-10-22T10:46:10.249Z,100137
2022-10-22T10:47:10.208Z,100137
2022-10-22T10:48:00.327Z,100150
2022-10-22T10:49:09.041Z,100150
2022-10-22T10:50:10.204Z,100150
2022-10-22T10:51:09.729Z,100150
2022-10-22T10:52:01.318Z,100150
2022-10-22T10:53:03.569Z,100147
2022-10-22T10:54:01.338Z,100147
2022-10-22T10:55:01.332Z,100147
2022-10-22T10:56:06.183Z,100147
2022-10-22T10:57:03.537Z,100147
2022-10-22T10:58:10.216Z,100148
2022-10-22T10:59:10.213Z,100148
2022-10-22T11:00:05.476Z,100148
2022-10-22T11:01:04.278Z,100148
2022-10-22T11:02:10.207Z,100148
2022-10-22T11:03:10.204Z,100154
2022-10-22T11:04:10.204Z,100154
2022-10-22T11:05:10.218Z,100154
2022-10-22T11:06:03.148Z,100154
2022-10-22T11:07:11.001Z,100154
2022-10-22T11:08:04.390Z,100156
2022-10-22T11:09:04.476Z,100156
2022-10-22T11:10:10.199Z,100156
2022-10-22T11:11:10.278Z,100156
2022-10-22T11:12:03.231Z,100156
2022-10-22T11:13:05.843Z,100157
2022-10-22T11:14:10.206Z,100157
2022-10-22T11:15:05.884Z,100157
2022-10-22T11:16:10.208Z,100157
2022-10-22T11:17:03.608Z,100157
2022-10-22T11:18:10.208Z,100159
2022-10-22T11:19:11.296Z,100159
2022-10-22T11:20:10.240Z,100159
2022-10-22T11:21:05.952Z,100159
2022-10-22T11:22:01.317Z,100159
2022-10-22T11:23:19.321Z,100156
2022-10-22T11:24:01.307Z,100156
2022-10-22T11:25:10.222Z,100156
2022-10-22T11:26:01.195Z,100156
2022-10-22T11:27:10.204Z,100156
2022-10-22T11:28:06.591Z,100157
2022-10-22T11:29:02.289Z,100157
2022-10-22T11:30:03.216Z,100157
2022-10-22T11:31:06.003Z,100157
2022-10-22T11:32:01.690Z,100157
2022-10-22T11:33:02.578Z,100151
2022-10-22T11:34:32.183Z,100151
2022-10-22T11:35:01.799Z,100151
2022-10-22T11:36:01.699Z,100151
2022-10-22T11:37:01.629Z,100151
2022-10-22T11:38:01.602Z,100160
2022-10-22T11:39:01.651Z,100160
2022-10-22T11:40:04.404Z,100160
2022-10-22T11:41:05.981Z,100160
2022-10-22T11:42:03.711Z,100160
2022-10-22T11:43:04.876Z,100150
2022-10-22T11:44:10.203Z,100150
2022-10-22T11:45:02.472Z,100150
2022-10-22T11:46:06.990Z,100150
2022-10-22T11:47:10.197Z,100150
2022-10-22T11:48:10.194Z,100147
2022-10-22T11:49:02.544Z,100147
2022-10-22T11:50:10.231Z,100147
2022-10-22T11:51:01.149Z,100147
2022-10-22T11:52:10.215Z,100147
2022-10-22T11:53:03.943Z,100157
2022-10-22T11:54:01.888Z,100157
2022-10-22T11:55:01.403Z,100157
2022-10-22T11:56:10.227Z,100157
2022-10-22T11:57:10.205Z,100157
2022-10-22T11:58:01.169Z,100148
2022-10-22T11:59:00.320Z,100148
2022-10-22T12:00:05.048Z,100148
2022-10-22T12:01:00.325Z,100148
2022-10-22T12:02:00.304Z,100148
2022-10-22T12:03:01.510Z,100143
2022-10-22T12:04:10.246Z,100143
2022-10-22T12:05:10.252Z,100143
2022-10-22T12:06:04.842Z,100143
2022-10-22T12:07:01.202Z,100143
2022-10-22T12:08:02.943Z,100146
2022-10-22T12:09:01.569Z,100146
2022-10-22T12:10:04.476Z,100146
2022-10-22T12:11:00.283Z,100146
2022-10-22T12:12:02.278Z,100146
2022-10-22T12:13:09.876Z,100130
2022-10-22T12:14:01.307Z,100130
2022-10-22T12:15:00.307Z,100130
2022-10-22T12:16:02.677Z,100130
2022-10-22T12:17:09.883Z,100130
2022-10-22T12:18:02.762Z,100135
2022-10-22T12:19:04.448Z,100135
2022-10-22T12:20:06.267Z,100135
2022-10-22T12:21:00.341Z,100135
2022-10-22T12:22:10.210Z,100135
2022-10-22T12:23:00.408Z,100136
2022-10-22T12:24:01.746Z,100136
2022-10-22T12:25:01.066Z,100136
2022-10-22T12:26:02.374Z,100136
2022-10-22T12:27:00.307Z,100136
2022-10-22T12:28:00.309Z,100139
2022-10-22T12:29:02.003Z,100139
2022-10-22T12:30:00.825Z,100139
2022-10-22T12:31:00.313Z,100139
2022-10-22T12:32:02.599Z,100139
2022-10-22T12:33:01.399Z,100132
2022-10-22T12:34:00.299Z,100132
2022-10-22T12:35:03.580Z,100132
2022-10-22T12:36:00.295Z,100132
2022-10-22T12:37:03.504Z,100132
2022-10-22T12:38:01.786Z,100133
2022-10-22T12:39:01.182Z,100133
2022-10-22T12:40:00.316Z,100133
2022-10-22T12:41:00.310Z,100133
2022-10-22T12:42:00.297Z,100133
2022-10-22T12:43:04.472Z,100129
2022-10-22T12:44:01.135Z,100129
2022-10-22T12:45:00.302Z,100129
2022-10-22T12:46:00.390Z,100129
2022-10-22T12:47:00.345Z,100129